sensor_id;sensor_type;location;lat;lon;timestamp;P1;durP1;ratioP1;P2;durP2;ratioP2
19651;SDS011;9974;52.146;14.668;2022-12-18T00:01:56;31.63;;;17.10;;
19651;SDS011;9974;52.146;14.668;2022-12-18T00:04:26;26.53;;;16.17;;
19651;SDS011;9974;52.146;14.668;2022-12-18T00:06:52;34.07;;;16.97;;
19651;SDS011;9974;52.146;14.668;2022-12-18T00:09:19;26.67;;;16.57;;
19651;SDS011;9974;52.146;14.668;2022-12-18T00:11:45;27.13;;;15.50;;
19651;SDS011;9974;52.146;14.668;2022-12-18T00:14:11;32.73;;;17.33;;
19651;SDS011;9974;52.146;14.668;2022-12-18T00:16:38;28.93;;;15.67;;
19651;SDS011;9974;52.146;14.668;2022-12-18T00:19:05;29.73;;;16.23;;
19651;SDS011;9974;52.146;14.668;2022-12-18T00:21:32;37.23;;;18.20;;
19651;SDS011;9974;52.146;14.668;2022-12-18T00:23:59;34.97;;;17.57;;
19651;SDS011;9974;52.146;14.668;2022-12-18T00:26:26;32.33;;;17.17;;
19651;SDS011;9974;52.146;14.668;2022-12-18T00:28:58;30.50;;;18.57;;
19651;SDS011;9974;52.146;14.668;2022-12-18T00:31:26;33.10;;;18.40;;
19651;SDS011;9974;52.146;14.668;2022-12-18T00:33:55;31.30;;;18.10;;
19651;SDS011;9974;52.146;14.668;2022-12-18T00:36:26;41.80;;;19.60;;
19651;SDS011;9974;52.146;14.668;2022-12-18T00:39:02;34.67;;;19.47;;
19651;SDS011;9974;52.146;14.668;2022-12-18T00:41:29;40.50;;;19.37;;
19651;SDS011;9974;52.146;14.668;2022-12-18T00:44:14;39.80;;;19.27;;
19651;SDS011;9974;52.146;14.668;2022-12-18T00:46:42;38.97;;;18.97;;
19651;SDS011;9974;52.146;14.668;2022-12-18T00:49:08;34.80;;;18.77;;
19651;SDS011;9974;52.146;14.668;2022-12-18T00:51:38;36.63;;;18.63;;
19651;SDS011;9974;52.146;14.668;2022-12-18T00:54:04;41.73;;;20.57;;
19651;SDS011;9974;52.146;14.668;2022-12-18T00:56:30;35.90;;;18.80;;
19651;SDS011;9974;52.146;14.668;2022-12-18T00:58:56;36.10;;;19.03;;
19651;SDS011;9974;52.146;14.668;2022-12-18T01:01:22;39.63;;;18.40;;
19651;SDS011;9974;52.146;14.668;2022-12-18T01:03:48;36.87;;;19.80;;
19651;SDS011;9974;52.146;14.668;2022-12-18T01:06:14;34.53;;;19.20;;
19651;SDS011;9974;52.146;14.668;2022-12-18T01:08:41;34.33;;;17.87;;
19651;SDS011;9974;52.146;14.668;2022-12-18T01:11:07;36.93;;;18.67;;
19651;SDS011;9974;52.146;14.668;2022-12-18T01:13:44;37.63;;;18.10;;
19651;SDS011;9974;52.146;14.668;2022-12-18T01:16:14;31.07;;;16.83;;
19651;SDS011;9974;52.146;14.668;2022-12-18T01:18:41;34.03;;;16.40;;
19651;SDS011;9974;52.146;14.668;2022-12-18T01:21:08;35.47;;;17.47;;
19651;SDS011;9974;52.146;14.668;2022-12-18T01:23:37;30.43;;;15.83;;
19651;SDS011;9974;52.146;14.668;2022-12-18T01:26:04;30.07;;;15.47;;
19651;SDS011;9974;52.146;14.668;2022-12-18T01:28:35;30.20;;;16.73;;
19651;SDS011;9974;52.146;14.668;2022-12-18T01:31:11;31.33;;;17.17;;
19651;SDS011;9974;52.146;14.668;2022-12-18T01:33:42;32.83;;;17.10;;
19651;SDS011;9974;52.146;14.668;2022-12-18T01:36:08;33.17;;;16.63;;
19651;SDS011;9974;52.146;14.668;2022-12-18T01:38:40;29.63;;;16.97;;
19651;SDS011;9974;52.146;14.668;2022-12-18T01:41:07;30.33;;;16.47;;
19651;SDS011;9974;52.146;14.668;2022-12-18T01:43:44;34.63;;;17.10;;
19651;SDS011;9974;52.146;14.668;2022-12-18T01:46:17;32.50;;;17.40;;
19651;SDS011;9974;52.146;14.668;2022-12-18T01:48:45;33.57;;;17.63;;
19651;SDS011;9974;52.146;14.668;2022-12-18T01:51:12;33.07;;;17.43;;
19651;SDS011;9974;52.146;14.668;2022-12-18T01:53:39;36.23;;;18.30;;
19651;SDS011;9974;52.146;14.668;2022-12-18T01:56:06;38.67;;;18.73;;
19651;SDS011;9974;52.146;14.668;2022-12-18T01:58:35;32.87;;;16.77;;
19651;SDS011;9974;52.146;14.668;2022-12-18T02:01:22;39.03;;;19.97;;
19651;SDS011;9974;52.146;14.668;2022-12-18T02:03:49;37.23;;;19.50;;
19651;SDS011;9974;52.146;14.668;2022-12-18T02:06:16;38.97;;;20.33;;
19651;SDS011;9974;52.146;14.668;2022-12-18T02:11:46;42.87;;;21.33;;
19651;SDS011;9974;52.146;14.668;2022-12-18T02:17:18;41.00;;;20.80;;
19651;SDS011;9974;52.146;14.668;2022-12-18T02:22:40;49.10;;;22.63;;
19651;SDS011;9974;52.146;14.668;2022-12-18T02:28:00;50.63;;;22.10;;
19651;SDS011;9974;52.146;14.668;2022-12-18T02:30:29;47.83;;;25.60;;
19651;SDS011;9974;52.146;14.668;2022-12-18T02:32:59;46.57;;;22.93;;
19651;SDS011;9974;52.146;14.668;2022-12-18T02:35:29;47.77;;;22.10;;
19651;SDS011;9974;52.146;14.668;2022-12-18T02:37:56;44.63;;;23.03;;
19651;SDS011;9974;52.146;14.668;2022-12-18T02:40:23;47.90;;;22.53;;
19651;SDS011;9974;52.146;14.668;2022-12-18T02:42:51;45.70;;;22.80;;
19651;SDS011;9974;52.146;14.668;2022-12-18T02:45:17;50.63;;;23.17;;
19651;SDS011;9974;52.146;14.668;2022-12-18T02:47:45;49.37;;;22.20;;
19651;SDS011;9974;52.146;14.668;2022-12-18T02:50:17;48.40;;;23.10;;
19651;SDS011;9974;52.146;14.668;2022-12-18T02:58:44;50.20;;;21.10;;
19651;SDS011;9974;52.146;14.668;2022-12-18T03:01:31;42.83;;;21.50;;
19651;SDS011;9974;52.146;14.668;2022-12-18T03:04:29;46.33;;;23.10;;
19651;SDS011;9974;52.146;14.668;2022-12-18T03:06:59;43.33;;;20.23;;
19651;SDS011;9974;52.146;14.668;2022-12-18T03:09:35;47.77;;;23.27;;
19651;SDS011;9974;52.146;14.668;2022-12-18T03:12:09;47.20;;;21.47;;
19651;SDS011;9974;52.146;14.668;2022-12-18T03:14:50;47.60;;;21.43;;
19651;SDS011;9974;52.146;14.668;2022-12-18T03:17:20;40.33;;;21.27;;
19651;SDS011;9974;52.146;14.668;2022-12-18T03:19:47;45.40;;;20.67;;
19651;SDS011;9974;52.146;14.668;2022-12-18T03:22:14;42.83;;;21.57;;
19651;SDS011;9974;52.146;14.668;2022-12-18T03:24:41;44.53;;;22.00;;
19651;SDS011;9974;52.146;14.668;2022-12-18T03:27:10;47.77;;;21.77;;
19651;SDS011;9974;52.146;14.668;2022-12-18T03:29:38;47.53;;;22.37;;
19651;SDS011;9974;52.146;14.668;2022-12-18T03:32:27;51.37;;;23.70;;
19651;SDS011;9974;52.146;14.668;2022-12-18T03:34:56;47.97;;;24.13;;
19651;SDS011;9974;52.146;14.668;2022-12-18T03:37:24;51.60;;;23.87;;
19651;SDS011;9974;52.146;14.668;2022-12-18T03:39:50;45.27;;;22.60;;
19651;SDS011;9974;52.146;14.668;2022-12-18T03:42:25;43.97;;;21.13;;
19651;SDS011;9974;52.146;14.668;2022-12-18T03:45:08;47.70;;;22.80;;
19651;SDS011;9974;52.146;14.668;2022-12-18T03:47:56;42.87;;;21.00;;
19651;SDS011;9974;52.146;14.668;2022-12-18T03:51:02;45.47;;;21.03;;
19651;SDS011;9974;52.146;14.668;2022-12-18T03:53:53;35.43;;;19.23;;
19651;SDS011;9974;52.146;14.668;2022-12-18T03:56:21;41.90;;;20.47;;
19651;SDS011;9974;52.146;14.668;2022-12-18T03:58:50;36.70;;;20.20;;
19651;SDS011;9974;52.146;14.668;2022-12-18T04:01:17;34.10;;;18.20;;
19651;SDS011;9974;52.146;14.668;2022-12-18T04:03:49;32.57;;;17.97;;
19651;SDS011;9974;52.146;14.668;2022-12-18T04:06:15;36.70;;;19.63;;
19651;SDS011;9974;52.146;14.668;2022-12-18T04:08:42;30.87;;;17.40;;
19651;SDS011;9974;52.146;14.668;2022-12-18T04:11:08;37.53;;;19.43;;
19651;SDS011;9974;52.146;14.668;2022-12-18T04:13:35;34.30;;;17.73;;
19651;SDS011;9974;52.146;14.668;2022-12-18T04:16:02;33.67;;;18.77;;
19651;SDS011;9974;52.146;14.668;2022-12-18T04:18:28;36.60;;;19.07;;
19651;SDS011;9974;52.146;14.668;2022-12-18T04:20:54;35.20;;;18.63;;
19651;SDS011;9974;52.146;14.668;2022-12-18T04:23:21;31.87;;;18.70;;
19651;SDS011;9974;52.146;14.668;2022-12-18T04:25:47;38.93;;;19.70;;
19651;SDS011;9974;52.146;14.668;2022-12-18T04:28:12;41.83;;;19.57;;
19651;SDS011;9974;52.146;14.668;2022-12-18T04:30:39;40.10;;;19.83;;
19651;SDS011;9974;52.146;14.668;2022-12-18T04:33:11;34.23;;;19.20;;
19651;SDS011;9974;52.146;14.668;2022-12-18T04:35:41;35.73;;;18.37;;
19651;SDS011;9974;52.146;14.668;2022-12-18T04:38:07;37.77;;;20.50;;
19651;SDS011;9974;52.146;14.668;2022-12-18T04:40:34;34.83;;;18.83;;
19651;SDS011;9974;52.146;14.668;2022-12-18T04:43:01;37.87;;;19.03;;
19651;SDS011;9974;52.146;14.668;2022-12-18T04:45:27;36.97;;;19.37;;
19651;SDS011;9974;52.146;14.668;2022-12-18T04:47:53;31.53;;;17.80;;
19651;SDS011;9974;52.146;14.668;2022-12-18T04:50:19;43.07;;;18.57;;
19651;SDS011;9974;52.146;14.668;2022-12-18T04:52:45;35.47;;;18.13;;
19651;SDS011;9974;52.146;14.668;2022-12-18T04:55:11;40.93;;;19.90;;
19651;SDS011;9974;52.146;14.668;2022-12-18T04:57:37;41.07;;;19.60;;
19651;SDS011;9974;52.146;14.668;2022-12-18T05:00:03;33.60;;;19.60;;
19651;SDS011;9974;52.146;14.668;2022-12-18T05:02:30;42.47;;;21.57;;
19651;SDS011;9974;52.146;14.668;2022-12-18T05:04:56;33.10;;;17.70;;
19651;SDS011;9974;52.146;14.668;2022-12-18T05:07:23;33.37;;;18.03;;
19651;SDS011;9974;52.146;14.668;2022-12-18T05:09:49;35.43;;;18.17;;
19651;SDS011;9974;52.146;14.668;2022-12-18T05:12:15;33.60;;;17.73;;
19651;SDS011;9974;52.146;14.668;2022-12-18T05:14:40;29.10;;;16.50;;
19651;SDS011;9974;52.146;14.668;2022-12-18T05:17:07;37.87;;;18.00;;
19651;SDS011;9974;52.146;14.668;2022-12-18T05:19:33;40.00;;;19.47;;
19651;SDS011;9974;52.146;14.668;2022-12-18T05:21:59;33.53;;;17.67;;
19651;SDS011;9974;52.146;14.668;2022-12-18T05:24:26;34.47;;;17.53;;
19651;SDS011;9974;52.146;14.668;2022-12-18T05:26:51;33.67;;;19.50;;
19651;SDS011;9974;52.146;14.668;2022-12-18T05:29:17;33.23;;;18.33;;
19651;SDS011;9974;52.146;14.668;2022-12-18T05:31:43;34.03;;;18.20;;
19651;SDS011;9974;52.146;14.668;2022-12-18T05:34:09;33.97;;;18.67;;
19651;SDS011;9974;52.146;14.668;2022-12-18T05:36:35;36.37;;;19.00;;
19651;SDS011;9974;52.146;14.668;2022-12-18T05:39:01;27.63;;;16.73;;
19651;SDS011;9974;52.146;14.668;2022-12-18T05:41:27;35.47;;;18.00;;
19651;SDS011;9974;52.146;14.668;2022-12-18T05:43:54;30.97;;;16.57;;
19651;SDS011;9974;52.146;14.668;2022-12-18T05:46:20;33.03;;;16.57;;
19651;SDS011;9974;52.146;14.668;2022-12-18T05:48:46;31.27;;;16.83;;
19651;SDS011;9974;52.146;14.668;2022-12-18T05:51:14;34.37;;;17.27;;
19651;SDS011;9974;52.146;14.668;2022-12-18T05:53:41;32.77;;;17.40;;
19651;SDS011;9974;52.146;14.668;2022-12-18T05:56:08;31.43;;;16.53;;
19651;SDS011;9974;52.146;14.668;2022-12-18T05:58:36;32.37;;;17.17;;
19651;SDS011;9974;52.146;14.668;2022-12-18T06:01:16;33.83;;;18.93;;
19651;SDS011;9974;52.146;14.668;2022-12-18T06:03:43;34.13;;;16.57;;
19651;SDS011;9974;52.146;14.668;2022-12-18T06:06:16;33.97;;;19.37;;
19651;SDS011;9974;52.146;14.668;2022-12-18T06:08:47;33.97;;;17.50;;
19651;SDS011;9974;52.146;14.668;2022-12-18T06:11:15;38.00;;;18.33;;
19651;SDS011;9974;52.146;14.668;2022-12-18T06:13:42;37.73;;;18.47;;
19651;SDS011;9974;52.146;14.668;2022-12-18T06:16:08;36.70;;;19.03;;
19651;SDS011;9974;52.146;14.668;2022-12-18T06:18:37;38.87;;;17.60;;
19651;SDS011;9974;52.146;14.668;2022-12-18T06:21:03;24.27;;;13.33;;
19651;SDS011;9974;52.146;14.668;2022-12-18T06:23:29;30.53;;;16.33;;
19651;SDS011;9974;52.146;14.668;2022-12-18T06:25:55;26.87;;;16.13;;
19651;SDS011;9974;52.146;14.668;2022-12-18T06:28:21;31.03;;;16.30;;
19651;SDS011;9974;52.146;14.668;2022-12-18T06:30:48;31.07;;;16.70;;
19651;SDS011;9974;52.146;14.668;2022-12-18T06:33:14;31.00;;;16.37;;
19651;SDS011;9974;52.146;14.668;2022-12-18T06:35:40;38.80;;;18.70;;
19651;SDS011;9974;52.146;14.668;2022-12-18T06:38:06;37.07;;;18.73;;
19651;SDS011;9974;52.146;14.668;2022-12-18T06:40:32;33.30;;;16.83;;
19651;SDS011;9974;52.146;14.668;2022-12-18T06:42:59;34.43;;;17.23;;
19651;SDS011;9974;52.146;14.668;2022-12-18T06:45:25;38.33;;;17.73;;
19651;SDS011;9974;52.146;14.668;2022-12-18T06:47:51;37.30;;;15.77;;
19651;SDS011;9974;52.146;14.668;2022-12-18T06:50:17;34.77;;;17.47;;
19651;SDS011;9974;52.146;14.668;2022-12-18T06:52:43;40.23;;;18.83;;
19651;SDS011;9974;52.146;14.668;2022-12-18T06:55:10;38.63;;;18.53;;
19651;SDS011;9974;52.146;14.668;2022-12-18T06:57:36;38.87;;;17.70;;
19651;SDS011;9974;52.146;14.668;2022-12-18T07:00:03;36.50;;;18.07;;
19651;SDS011;9974;52.146;14.668;2022-12-18T07:02:30;36.47;;;18.63;;
19651;SDS011;9974;52.146;14.668;2022-12-18T07:04:56;52.17;;;19.17;;
19651;SDS011;9974;52.146;14.668;2022-12-18T07:07:22;41.87;;;18.80;;
19651;SDS011;9974;52.146;14.668;2022-12-18T07:09:49;39.30;;;18.83;;
19651;SDS011;9974;52.146;14.668;2022-12-18T07:12:15;42.40;;;17.77;;
19651;SDS011;9974;52.146;14.668;2022-12-18T07:14:41;37.13;;;19.00;;
19651;SDS011;9974;52.146;14.668;2022-12-18T07:17:07;40.77;;;20.03;;
19651;SDS011;9974;52.146;14.668;2022-12-18T07:19:33;40.53;;;19.93;;
19651;SDS011;9974;52.146;14.668;2022-12-18T07:21:59;52.60;;;21.07;;
19651;SDS011;9974;52.146;14.668;2022-12-18T07:24:25;39.10;;;18.83;;
19651;SDS011;9974;52.146;14.668;2022-12-18T07:26:51;40.07;;;20.33;;
19651;SDS011;9974;52.146;14.668;2022-12-18T07:29:17;45.57;;;18.70;;
19651;SDS011;9974;52.146;14.668;2022-12-18T07:31:43;39.20;;;21.07;;
19651;SDS011;9974;52.146;14.668;2022-12-18T07:34:10;34.60;;;18.07;;
19651;SDS011;9974;52.146;14.668;2022-12-18T07:36:40;35.10;;;17.73;;
19651;SDS011;9974;52.146;14.668;2022-12-18T07:39:05;39.37;;;19.10;;
19651;SDS011;9974;52.146;14.668;2022-12-18T07:41:32;36.30;;;18.67;;
19651;SDS011;9974;52.146;14.668;2022-12-18T07:43:57;45.00;;;19.07;;
19651;SDS011;9974;52.146;14.668;2022-12-18T07:46:24;42.00;;;18.20;;
19651;SDS011;9974;52.146;14.668;2022-12-18T07:48:50;48.97;;;19.57;;
19651;SDS011;9974;52.146;14.668;2022-12-18T07:51:16;38.93;;;18.20;;
19651;SDS011;9974;52.146;14.668;2022-12-18T07:53:43;43.23;;;18.50;;
19651;SDS011;9974;52.146;14.668;2022-12-18T07:56:11;50.90;;;21.20;;
19651;SDS011;9974;52.146;14.668;2022-12-18T07:58:38;43.33;;;20.27;;
19651;SDS011;9974;52.146;14.668;2022-12-18T08:01:05;47.57;;;19.80;;
19651;SDS011;9974;52.146;14.668;2022-12-18T08:03:31;43.57;;;17.77;;
19651;SDS011;9974;52.146;14.668;2022-12-18T08:05:58;41.07;;;18.77;;
19651;SDS011;9974;52.146;14.668;2022-12-18T08:08:28;35.33;;;16.83;;
19651;SDS011;9974;52.146;14.668;2022-12-18T08:10:55;36.60;;;16.73;;
19651;SDS011;9974;52.146;14.668;2022-12-18T08:13:21;36.63;;;17.93;;
19651;SDS011;9974;52.146;14.668;2022-12-18T08:18:28;41.93;;;17.43;;
19651;SDS011;9974;52.146;14.668;2022-12-18T08:20:54;38.93;;;17.30;;
19651;SDS011;9974;52.146;14.668;2022-12-18T08:23:20;42.70;;;15.67;;
19651;SDS011;9974;52.146;14.668;2022-12-18T08:25:46;41.90;;;19.73;;
19651;SDS011;9974;52.146;14.668;2022-12-18T08:28:13;45.53;;;24.03;;
19651;SDS011;9974;52.146;14.668;2022-12-18T08:30:39;40.73;;;19.00;;
19651;SDS011;9974;52.146;14.668;2022-12-18T08:33:04;39.00;;;16.87;;
19651;SDS011;9974;52.146;14.668;2022-12-18T08:35:30;33.60;;;15.17;;
19651;SDS011;9974;52.146;14.668;2022-12-18T08:38:01;39.13;;;17.23;;
19651;SDS011;9974;52.146;14.668;2022-12-18T08:40:28;46.30;;;18.73;;
19651;SDS011;9974;52.146;14.668;2022-12-18T08:42:54;31.30;;;15.57;;
19651;SDS011;9974;52.146;14.668;2022-12-18T08:45:38;39.03;;;17.87;;
19651;SDS011;9974;52.146;14.668;2022-12-18T08:48:04;40.37;;;16.77;;
19651;SDS011;9974;52.146;14.668;2022-12-18T08:50:30;36.53;;;16.70;;
19651;SDS011;9974;52.146;14.668;2022-12-18T08:52:56;41.10;;;18.37;;
19651;SDS011;9974;52.146;14.668;2022-12-18T08:55:21;33.93;;;16.57;;
19651;SDS011;9974;52.146;14.668;2022-12-18T08:57:48;32.90;;;14.73;;
19651;SDS011;9974;52.146;14.668;2022-12-18T09:00:14;32.77;;;16.20;;
19651;SDS011;9974;52.146;14.668;2022-12-18T09:02:40;31.07;;;16.77;;
19651;SDS011;9974;52.146;14.668;2022-12-18T09:05:06;32.23;;;15.50;;
19651;SDS011;9974;52.146;14.668;2022-12-18T09:07:32;40.80;;;16.97;;
19651;SDS011;9974;52.146;14.668;2022-12-18T09:09:58;30.50;;;16.50;;
19651;SDS011;9974;52.146;14.668;2022-12-18T09:12:24;40.23;;;17.93;;
19651;SDS011;9974;52.146;14.668;2022-12-18T09:14:50;36.83;;;19.20;;
19651;SDS011;9974;52.146;14.668;2022-12-18T09:17:16;36.57;;;16.30;;
19651;SDS011;9974;52.146;14.668;2022-12-18T09:19:42;40.73;;;19.57;;
19651;SDS011;9974;52.146;14.668;2022-12-18T09:22:08;44.17;;;20.03;;
19651;SDS011;9974;52.146;14.668;2022-12-18T09:24:35;45.23;;;20.07;;
19651;SDS011;9974;52.146;14.668;2022-12-18T09:27:01;47.13;;;20.23;;
19651;SDS011;9974;52.146;14.668;2022-12-18T09:29:27;48.93;;;20.43;;
19651;SDS011;9974;52.146;14.668;2022-12-18T09:31:53;41.33;;;20.63;;
19651;SDS011;9974;52.146;14.668;2022-12-18T09:34:19;41.30;;;20.03;;
19651;SDS011;9974;52.146;14.668;2022-12-18T09:36:46;48.70;;;21.93;;
19651;SDS011;9974;52.146;14.668;2022-12-18T09:39:12;46.77;;;21.10;;
19651;SDS011;9974;52.146;14.668;2022-12-18T09:41:46;53.43;;;23.07;;
19651;SDS011;9974;52.146;14.668;2022-12-18T09:47:02;42.63;;;21.10;;
19651;SDS011;9974;52.146;14.668;2022-12-18T09:49:30;52.53;;;27.00;;
19651;SDS011;9974;52.146;14.668;2022-12-18T09:51:59;49.27;;;24.87;;
19651;SDS011;9974;52.146;14.668;2022-12-18T09:54:33;59.17;;;25.10;;
19651;SDS011;9974;52.146;14.668;2022-12-18T09:57:18;61.73;;;25.77;;
19651;SDS011;9974;52.146;14.668;2022-12-18T09:59:51;49.47;;;25.53;;
19651;SDS011;9974;52.146;14.668;2022-12-18T10:02:24;57.33;;;28.73;;
19651;SDS011;9974;52.146;14.668;2022-12-18T10:05:02;60.10;;;28.23;;
19651;SDS011;9974;52.146;14.668;2022-12-18T10:07:41;55.60;;;26.47;;
19651;SDS011;9974;52.146;14.668;2022-12-18T10:13:06;50.57;;;23.60;;
19651;SDS011;9974;52.146;14.668;2022-12-18T10:27:11;61.77;;;29.13;;
19651;SDS011;9974;52.146;14.668;2022-12-18T10:29:43;54.70;;;27.70;;
19651;SDS011;9974;52.146;14.668;2022-12-18T10:32:13;57.10;;;27.40;;
19651;SDS011;9974;52.146;14.668;2022-12-18T10:34:44;51.93;;;23.30;;
19651;SDS011;9974;52.146;14.668;2022-12-18T10:37:15;50.30;;;22.10;;
19651;SDS011;9974;52.146;14.668;2022-12-18T10:39:42;58.90;;;25.10;;
19651;SDS011;9974;52.146;14.668;2022-12-18T10:42:10;50.93;;;24.70;;
19651;SDS011;9974;52.146;14.668;2022-12-18T10:44:43;53.67;;;27.53;;
19651;SDS011;9974;52.146;14.668;2022-12-18T10:47:11;54.30;;;27.87;;
19651;SDS011;9974;52.146;14.668;2022-12-18T10:49:47;51.43;;;25.50;;
19651;SDS011;9974;52.146;14.668;2022-12-18T10:52:18;56.60;;;24.77;;
19651;SDS011;9974;52.146;14.668;2022-12-18T10:54:51;48.83;;;24.90;;
19651;SDS011;9974;52.146;14.668;2022-12-18T11:02:52;62.07;;;27.17;;
19651;SDS011;9974;52.146;14.668;2022-12-18T11:05:26;62.23;;;28.13;;
19651;SDS011;9974;52.146;14.668;2022-12-18T11:08:01;50.30;;;26.67;;
19651;SDS011;9974;52.146;14.668;2022-12-18T11:10:30;63.40;;;28.20;;
19651;SDS011;9974;52.146;14.668;2022-12-18T11:13:11;53.60;;;25.63;;
19651;SDS011;9974;52.146;14.668;2022-12-18T11:15:41;58.20;;;25.20;;
19651;SDS011;9974;52.146;14.668;2022-12-18T11:18:16;49.80;;;24.40;;
19651;SDS011;9974;52.146;14.668;2022-12-18T11:20:55;49.53;;;25.50;;
19651;SDS011;9974;52.146;14.668;2022-12-18T11:23:24;54.97;;;26.23;;
19651;SDS011;9974;52.146;14.668;2022-12-18T11:25:55;50.20;;;26.13;;
19651;SDS011;9974;52.146;14.668;2022-12-18T11:33:43;58.67;;;26.47;;
19651;SDS011;9974;52.146;14.668;2022-12-18T11:36:12;49.47;;;23.77;;
19651;SDS011;9974;52.146;14.668;2022-12-18T11:38:39;57.33;;;27.70;;
19651;SDS011;9974;52.146;14.668;2022-12-18T11:41:10;50.27;;;25.33;;
19651;SDS011;9974;52.146;14.668;2022-12-18T11:43:51;47.07;;;23.87;;
19651;SDS011;9974;52.146;14.668;2022-12-18T13:50:41;46.40;;;25.70;;
19651;SDS011;9974;52.146;14.668;2022-12-18T13:53:11;52.27;;;26.67;;
19651;SDS011;9974;52.146;14.668;2022-12-18T13:55:47;41.00;;;22.77;;
19651;SDS011;9974;52.146;14.668;2022-12-18T13:58:14;41.77;;;25.13;;
19651;SDS011;9974;52.146;14.668;2022-12-18T14:00:41;52.27;;;25.77;;
19651;SDS011;9974;52.146;14.668;2022-12-18T14:03:16;47.47;;;26.17;;
19651;SDS011;9974;52.146;14.668;2022-12-18T14:05:52;48.70;;;26.33;;
19651;SDS011;9974;52.146;14.668;2022-12-18T14:08:20;47.47;;;27.33;;
19651;SDS011;9974;52.146;14.668;2022-12-18T14:10:47;43.53;;;25.73;;
19651;SDS011;9974;52.146;14.668;2022-12-18T14:13:17;46.13;;;26.07;;
19651;SDS011;9974;52.146;14.668;2022-12-18T14:15:56;41.50;;;24.53;;
19651;SDS011;9974;52.146;14.668;2022-12-18T14:20:54;41.50;;;21.27;;
19651;SDS011;9974;52.146;14.668;2022-12-18T14:23:27;44.57;;;24.80;;
19651;SDS011;9974;52.146;14.668;2022-12-18T14:26:00;43.40;;;22.77;;
19651;SDS011;9974;52.146;14.668;2022-12-18T14:28:46;42.77;;;22.57;;
19651;SDS011;9974;52.146;14.668;2022-12-18T14:31:19;37.97;;;21.87;;
19651;SDS011;9974;52.146;14.668;2022-12-18T14:33:48;35.83;;;20.77;;
19651;SDS011;9974;52.146;14.668;2022-12-18T14:36:15;34.43;;;19.80;;
19651;SDS011;9974;52.146;14.668;2022-12-18T14:38:43;33.97;;;21.10;;
19651;SDS011;9974;52.146;14.668;2022-12-18T14:41:16;35.17;;;19.47;;
19651;SDS011;9974;52.146;14.668;2022-12-18T14:43:44;37.53;;;20.87;;
19651;SDS011;9974;52.146;14.668;2022-12-18T14:46:27;42.30;;;23.03;;
19651;SDS011;9974;52.146;14.668;2022-12-18T14:52:01;39.43;;;20.50;;
19651;SDS011;9974;52.146;14.668;2022-12-18T14:54:29;39.40;;;21.13;;
19651;SDS011;9974;52.146;14.668;2022-12-18T14:57:00;36.70;;;21.67;;
19651;SDS011;9974;52.146;14.668;2022-12-18T14:59:49;39.80;;;20.73;;
19651;SDS011;9974;52.146;14.668;2022-12-18T15:02:25;33.40;;;19.20;;
19651;SDS011;9974;52.146;14.668;2022-12-18T15:07:41;39.30;;;21.73;;
19651;SDS011;9974;52.146;14.668;2022-12-18T15:20:39;38.53;;;21.07;;
19651;SDS011;9974;52.146;14.668;2022-12-18T15:23:24;37.73;;;21.60;;
19651;SDS011;9974;52.146;14.668;2022-12-18T15:25:56;41.13;;;20.30;;
19651;SDS011;9974;52.146;14.668;2022-12-18T15:31:22;32.03;;;20.23;;
19651;SDS011;9974;52.146;14.668;2022-12-18T15:36:22;37.47;;;19.90;;
19651;SDS011;9974;52.146;14.668;2022-12-18T15:38:52;37.97;;;20.40;;
19651;SDS011;9974;52.146;14.668;2022-12-18T15:41:20;37.87;;;21.70;;
19651;SDS011;9974;52.146;14.668;2022-12-18T15:43:47;36.57;;;20.43;;
19651;SDS011;9974;52.146;14.668;2022-12-18T15:46:15;37.43;;;20.67;;
19651;SDS011;9974;52.146;14.668;2022-12-18T15:48:48;37.77;;;19.70;;
19651;SDS011;9974;52.146;14.668;2022-12-18T15:51:34;37.90;;;20.57;;
19651;SDS011;9974;52.146;14.668;2022-12-18T15:54:02;33.03;;;19.77;;
19651;SDS011;9974;52.146;14.668;2022-12-18T15:56:31;34.00;;;19.70;;
19651;SDS011;9974;52.146;14.668;2022-12-18T15:59:33;32.33;;;19.37;;
19651;SDS011;9974;52.146;14.668;2022-12-18T16:01:59;39.77;;;20.67;;
19651;SDS011;9974;52.146;14.668;2022-12-18T16:04:25;37.20;;;20.67;;
19651;SDS011;9974;52.146;14.668;2022-12-18T16:06:51;36.83;;;20.73;;
19651;SDS011;9974;52.146;14.668;2022-12-18T16:09:17;41.27;;;22.90;;
19651;SDS011;9974;52.146;14.668;2022-12-18T16:11:43;45.43;;;22.87;;
19651;SDS011;9974;52.146;14.668;2022-12-18T16:14:21;41.30;;;22.37;;
19651;SDS011;9974;52.146;14.668;2022-12-18T16:16:49;37.80;;;21.23;;
19651;SDS011;9974;52.146;14.668;2022-12-18T16:19:17;40.83;;;22.80;;
19651;SDS011;9974;52.146;14.668;2022-12-18T16:21:43;41.83;;;25.17;;
19651;SDS011;9974;52.146;14.668;2022-12-18T16:24:17;43.93;;;23.13;;
19651;SDS011;9974;52.146;14.668;2022-12-18T16:26:46;44.37;;;24.80;;
19651;SDS011;9974;52.146;14.668;2022-12-18T16:29:13;41.90;;;24.23;;
19651;SDS011;9974;52.146;14.668;2022-12-18T16:31:39;50.23;;;25.87;;
19651;SDS011;9974;52.146;14.668;2022-12-18T16:34:09;46.80;;;24.63;;
19651;SDS011;9974;52.146;14.668;2022-12-18T16:36:36;49.47;;;26.03;;
19651;SDS011;9974;52.146;14.668;2022-12-18T16:39:05;43.67;;;26.77;;
19651;SDS011;9974;52.146;14.668;2022-12-18T16:41:31;48.93;;;28.40;;
19651;SDS011;9974;52.146;14.668;2022-12-18T16:43:57;44.03;;;26.60;;
19651;SDS011;9974;52.146;14.668;2022-12-18T16:46:24;53.40;;;27.73;;
19651;SDS011;9974;52.146;14.668;2022-12-18T16:48:50;50.73;;;31.03;;
19651;SDS011;9974;52.146;14.668;2022-12-18T16:51:16;52.97;;;28.97;;
19651;SDS011;9974;52.146;14.668;2022-12-18T16:53:42;60.20;;;31.63;;
19651;SDS011;9974;52.146;14.668;2022-12-18T16:56:08;51.33;;;29.30;;
19651;SDS011;9974;52.146;14.668;2022-12-18T16:58:34;54.57;;;31.30;;
19651;SDS011;9974;52.146;14.668;2022-12-18T17:01:00;53.97;;;30.47;;
19651;SDS011;9974;52.146;14.668;2022-12-18T17:03:26;55.00;;;29.43;;
19651;SDS011;9974;52.146;14.668;2022-12-18T17:05:52;54.30;;;29.70;;
19651;SDS011;9974;52.146;14.668;2022-12-18T17:08:18;60.23;;;33.47;;
19651;SDS011;9974;52.146;14.668;2022-12-18T17:10:44;63.90;;;36.90;;
19651;SDS011;9974;52.146;14.668;2022-12-18T17:13:10;58.37;;;31.87;;
19651;SDS011;9974;52.146;14.668;2022-12-18T17:15:36;56.03;;;32.10;;
19651;SDS011;9974;52.146;14.668;2022-12-18T17:18:02;57.30;;;32.07;;
19651;SDS011;9974;52.146;14.668;2022-12-18T17:20:29;60.07;;;32.33;;
19651;SDS011;9974;52.146;14.668;2022-12-18T17:22:58;60.80;;;32.27;;
19651;SDS011;9974;52.146;14.668;2022-12-18T17:25:24;56.97;;;32.13;;
19651;SDS011;9974;52.146;14.668;2022-12-18T17:27:50;55.87;;;31.07;;
19651;SDS011;9974;52.146;14.668;2022-12-18T17:30:16;55.37;;;32.23;;
19651;SDS011;9974;52.146;14.668;2022-12-18T17:32:42;60.00;;;33.60;;
19651;SDS011;9974;52.146;14.668;2022-12-18T17:35:08;71.93;;;37.33;;
19651;SDS011;9974;52.146;14.668;2022-12-18T17:37:34;67.77;;;34.77;;
19651;SDS011;9974;52.146;14.668;2022-12-18T17:40:00;66.13;;;35.40;;
19651;SDS011;9974;52.146;14.668;2022-12-18T17:42:26;67.40;;;36.43;;
19651;SDS011;9974;52.146;14.668;2022-12-18T17:44:52;64.70;;;35.37;;
19651;SDS011;9974;52.146;14.668;2022-12-18T17:47:18;67.30;;;35.07;;
19651;SDS011;9974;52.146;14.668;2022-12-18T17:49:44;67.30;;;35.03;;